createdAt,value
2018-06-13T00:01:43.982Z,15.40
2018-06-13T00:04:13.276Z,15.40
2018-06-13T00:06:42.253Z,15.40
2018-06-13T00:09:11.304Z,15.40
2018-06-13T00:11:40.266Z,15.40
2018-06-13T00:14:09.218Z,15.40
2018-06-13T00:16:38.377Z,15.40
2018-06-13T00:19:07.437Z,15.40
2018-06-13T00:21:36.951Z,15.40
2018-06-13T00:24:06.158Z,15.40
2018-06-13T00:26:35.039Z,15.40
2018-06-13T00:29:03.841Z,15.40
2018-06-13T00:31:32.339Z,15.40
2018-06-13T00:34:00.783Z,15.30
2018-06-13T00:36:29.231Z,15.30
2018-06-13T00:38:57.643Z,15.30
2018-06-13T00:41:26.183Z,15.30
2018-06-13T00:43:54.611Z,15.30
2018-06-13T00:46:23.154Z,15.30
2018-06-13T00:48:51.616Z,15.20
2018-06-13T00:51:20.371Z,15.20
2018-06-13T00:53:48.787Z,15.20
2018-06-13T00:56:28.775Z,15.20
2018-06-13T00:58:57.235Z,15.20
2018-06-13T01:01:25.679Z,15.20
2018-06-13T01:03:54.202Z,15.30
2018-06-13T01:06:22.584Z,15.30
2018-06-13T01:08:51.166Z,15.30
2018-06-13T01:11:19.909Z,15.30
2018-06-13T01:13:49.070Z,15.30
2018-06-13T01:16:17.894Z,15.30
2018-06-13T01:18:46.623Z,15.30
2018-06-13T01:21:15.434Z,15.40
2018-06-13T01:23:44.227Z,15.30
2018-06-13T01:26:13.520Z,15.30
2018-06-13T01:31:11.307Z,15.30
2018-06-13T01:33:40.930Z,15.30
2018-06-13T01:36:10.356Z,15.30
2018-06-13T01:38:40.072Z,15.30
2018-06-13T01:41:09.815Z,15.20
2018-06-13T01:43:39.136Z,15.20
2018-06-13T01:46:08.394Z,15.20
2018-06-13T01:48:37.204Z,15.20
2018-06-13T01:51:06.008Z,15.20
2018-06-13T01:53:34.677Z,15.20
2018-06-13T01:56:03.295Z,15.20
2018-06-13T01:58:31.814Z,15.20
2018-06-13T02:01:00.326Z,15.20
2018-06-13T02:03:28.782Z,15.20
2018-06-13T02:05:57.273Z,15.20
2018-06-13T02:08:25.684Z,15.20
2018-06-13T02:10:54.168Z,15.20
2018-06-13T02:13:22.593Z,15.30
2018-06-13T02:15:51.175Z,15.30
2018-06-13T02:18:19.951Z,15.30
2018-06-13T02:20:48.560Z,15.30
2018-06-13T02:23:17.318Z,15.30
2018-06-13T02:25:46.087Z,15.30
2018-06-13T02:28:14.861Z,15.30
2018-06-13T02:30:43.684Z,15.20
2018-06-13T02:33:12.679Z,15.20
2018-06-13T02:35:41.826Z,15.20
2018-06-13T02:38:11.253Z,15.20
2018-06-13T02:40:40.439Z,15.30
2018-06-13T02:45:37.516Z,15.20
2018-06-13T02:48:06.052Z,15.30
2018-06-13T02:50:34.819Z,15.20
2018-06-13T02:53:03.591Z,15.30
2018-06-13T02:55:32.030Z,15.30
2018-06-13T02:58:00.504Z,15.30
2018-06-13T03:00:29.015Z,15.40
2018-06-13T03:02:57.440Z,15.40
2018-06-13T03:05:25.840Z,15.40
2018-06-13T03:07:54.243Z,15.40
2018-06-13T03:10:22.643Z,15.40
2018-06-13T03:12:51.087Z,15.30
2018-06-13T03:15:19.689Z,15.40
2018-06-13T03:17:48.445Z,15.40
2018-06-13T03:20:16.954Z,15.50
2018-06-13T03:22:45.680Z,15.40
2018-06-13T03:25:14.395Z,15.50
2018-06-13T03:27:43.574Z,15.50
2018-06-13T03:30:12.690Z,15.50
2018-06-13T03:32:41.781Z,15.50
2018-06-13T03:35:11.044Z,15.60
2018-06-13T03:37:40.262Z,15.60
2018-06-13T03:42:37.850Z,15.60
2018-06-13T03:45:06.519Z,15.70
2018-06-13T03:47:36.950Z,15.70
2018-06-13T03:50:05.646Z,15.70
2018-06-13T03:52:34.201Z,15.80
2018-06-13T03:55:02.773Z,15.80
2018-06-13T03:57:31.199Z,15.80
2018-06-13T03:59:59.731Z,15.80
2018-06-13T04:02:28.148Z,15.80
2018-06-13T04:04:56.518Z,15.80
2018-06-13T04:07:24.983Z,15.80
2018-06-13T04:09:53.434Z,15.80
2018-06-13T04:12:21.871Z,15.80
2018-06-13T04:14:50.444Z,15.70
2018-06-13T04:17:19.001Z,15.70
2018-06-13T04:19:47.625Z,15.60
2018-06-13T04:22:16.356Z,15.60
2018-06-13T04:24:45.188Z,15.50
2018-06-13T04:27:13.908Z,15.50
2018-06-13T04:29:42.930Z,15.50
2018-06-13T04:32:11.836Z,15.50
2018-06-13T04:34:40.834Z,15.50
2018-06-13T04:37:09.752Z,15.50
2018-06-13T04:39:38.885Z,15.50
2018-06-13T04:42:07.707Z,15.40
2018-06-13T04:44:36.994Z,15.40
2018-06-13T04:47:05.430Z,15.40
2018-06-13T04:49:33.972Z,15.40
2018-06-13T04:52:02.520Z,15.40
2018-06-13T04:54:31.206Z,15.40
2018-06-13T04:56:59.744Z,15.40
2018-06-13T04:59:28.231Z,15.30
2018-06-13T05:01:56.790Z,15.20
2018-06-13T05:04:25.255Z,15.30
2018-06-13T05:06:54.540Z,15.30
2018-06-13T05:09:22.930Z,15.30
2018-06-13T05:11:51.343Z,15.20
2018-06-13T05:14:19.857Z,15.20
2018-06-13T05:16:48.639Z,15.20
2018-06-13T05:19:17.267Z,15.30
2018-06-13T05:21:45.839Z,15.30
2018-06-13T05:24:14.599Z,15.20
2018-06-13T05:26:43.355Z,15.10
2018-06-13T05:29:12.308Z,15.20
2018-06-13T05:31:41.107Z,15.10
2018-06-13T05:34:10.299Z,15.20
2018-06-13T05:36:39.977Z,14.90
2018-06-13T05:39:08.874Z,14.90
2018-06-13T05:41:37.481Z,14.80
2018-06-13T05:44:06.000Z,14.70
2018-06-13T05:46:34.476Z,14.70
2018-06-13T05:49:03.015Z,14.70
2018-06-13T05:51:31.621Z,14.60
2018-06-13T05:54:00.091Z,14.60
2018-06-13T05:56:28.602Z,14.70
2018-06-13T05:58:57.042Z,14.70
2018-06-13T06:01:25.462Z,14.70
2018-06-13T06:03:53.956Z,14.80
2018-06-13T06:06:22.468Z,14.80
2018-06-13T06:08:50.867Z,14.80
2018-06-13T06:11:19.432Z,14.80
2018-06-13T06:13:48.072Z,14.80
2018-06-13T06:16:16.595Z,14.80
2018-06-13T06:18:45.204Z,14.70
2018-06-13T06:21:13.765Z,14.60
2018-06-13T06:23:42.546Z,14.60
2018-06-13T06:26:11.398Z,14.60
2018-06-13T06:28:40.237Z,14.60
2018-06-13T06:31:09.091Z,14.60
2018-06-13T06:33:37.610Z,14.60
2018-06-13T06:36:10.173Z,14.50
2018-06-13T06:38:39.988Z,14.50
2018-06-13T06:41:09.672Z,14.50
2018-06-13T06:43:39.421Z,14.50
2018-06-13T06:46:08.529Z,14.50
2018-06-13T06:48:37.540Z,14.50
2018-06-13T06:51:06.058Z,14.40
2018-06-13T06:53:34.492Z,14.30
2018-06-13T06:56:02.909Z,14.30
2018-06-13T06:58:31.516Z,14.30
2018-06-13T07:01:00.030Z,14.30
2018-06-13T07:03:28.495Z,14.30
2018-06-13T07:05:56.993Z,14.30
2018-06-13T07:08:25.450Z,14.30
2018-06-13T07:10:53.752Z,14.30
2018-06-13T07:13:22.238Z,14.30
2018-06-13T07:15:50.688Z,14.20
2018-06-13T07:18:19.144Z,14.10
2018-06-13T07:20:47.668Z,14.10
2018-06-13T07:23:16.207Z,14.00
2018-06-13T07:25:44.771Z,13.90
2018-06-13T07:28:13.423Z,14.00
2018-06-13T07:30:42.188Z,14.00
2018-06-13T07:33:11.111Z,14.00
2018-06-13T07:35:40.288Z,14.10
2018-06-13T07:38:09.237Z,14.20
2018-06-13T07:40:37.863Z,14.30
2018-06-13T07:43:06.329Z,14.20
2018-06-13T07:45:34.820Z,14.30
2018-06-13T07:48:03.470Z,14.10
2018-06-13T07:50:32.003Z,14.10
2018-06-13T07:53:00.545Z,14.20
2018-06-13T07:55:29.166Z,14.20
2018-06-13T07:57:57.822Z,14.20
2018-06-13T08:00:26.319Z,14.10
2018-06-13T08:02:54.760Z,14.10
2018-06-13T08:05:23.201Z,14.20
2018-06-13T08:07:51.624Z,14.30
2018-06-13T08:10:20.312Z,14.30
2018-06-13T08:12:48.702Z,14.40
2018-06-13T08:15:17.259Z,14.50
2018-06-13T08:18:02.027Z,14.50
2018-06-13T08:20:30.508Z,14.80
2018-06-13T08:22:58.946Z,15.00
2018-06-13T08:25:27.356Z,15.30
2018-06-13T08:27:55.825Z,15.40
2018-06-13T08:30:24.463Z,15.50
2018-06-13T08:32:52.938Z,15.60
2018-06-13T08:35:21.463Z,15.50
2018-06-13T08:37:49.959Z,15.60
2018-06-13T08:40:18.541Z,15.70
2018-06-13T08:42:47.052Z,15.70
2018-06-13T08:45:15.711Z,15.60
2018-06-13T08:47:44.391Z,15.60
2018-06-13T08:50:13.043Z,15.70
2018-06-13T08:52:41.796Z,15.70
2018-06-13T08:55:10.680Z,15.80
2018-06-13T08:57:39.435Z,15.80
2018-06-13T09:02:36.132Z,15.90
2018-06-13T09:05:04.633Z,15.70
2018-06-13T09:07:33.210Z,15.80
2018-06-13T09:10:01.853Z,15.80
2018-06-13T09:12:30.289Z,15.70
2018-06-13T09:14:58.744Z,15.90
2018-06-13T09:17:27.133Z,15.90
2018-06-13T09:19:55.610Z,15.80
2018-06-13T09:22:24.075Z,15.70
2018-06-13T09:24:52.466Z,15.50
2018-06-13T09:27:20.942Z,15.50
2018-06-13T09:29:49.494Z,15.30
2018-06-13T09:32:18.174Z,15.30
2018-06-13T09:34:46.862Z,15.10
2018-06-13T09:37:15.498Z,15.10
2018-06-13T09:39:44.194Z,15.10
2018-06-13T09:42:12.916Z,15.10
2018-06-13T09:44:43.660Z,15.00
2018-06-13T09:47:15.136Z,15.10
2018-06-13T09:49:41.338Z,15.30
2018-06-13T09:52:10.058Z,15.30
2018-06-13T09:54:38.708Z,15.30
2018-06-13T09:57:07.940Z,15.10
2018-06-13T09:59:40.783Z,15.10
2018-06-13T10:02:15.093Z,15.10
2018-06-13T10:04:43.765Z,15.20
2018-06-13T10:07:12.512Z,15.30
2018-06-13T10:09:41.220Z,15.20
2018-06-13T10:12:09.841Z,15.30
2018-06-13T10:14:38.597Z,15.50
2018-06-13T10:17:07.761Z,15.70
2018-06-13T10:19:36.209Z,16.00
2018-06-13T10:22:04.611Z,16.20
2018-06-13T10:24:33.070Z,16.20
2018-06-13T10:27:05.760Z,16.20
2018-06-13T10:29:34.206Z,16.10
2018-06-13T10:32:02.956Z,16.20
2018-06-13T10:34:31.528Z,16.10
2018-06-13T10:37:00.027Z,16.20
2018-06-13T10:39:28.518Z,16.20
2018-06-13T10:41:56.995Z,16.40
2018-06-13T10:44:25.520Z,16.50
2018-06-13T10:46:53.920Z,16.20
2018-06-13T10:49:22.384Z,16.20
2018-06-13T10:51:50.790Z,16.20
2018-06-13T10:54:19.221Z,16.30
2018-06-13T10:56:47.821Z,16.10
2018-06-13T10:59:16.355Z,16.20
2018-06-13T11:01:44.999Z,16.30
2018-06-13T11:04:13.710Z,16.30
2018-06-13T11:06:42.575Z,16.10
2018-06-13T11:09:11.318Z,16.20
2018-06-13T11:11:40.105Z,16.10
2018-06-13T11:14:09.450Z,16.10
2018-06-13T11:16:38.166Z,15.90
2018-06-13T11:19:06.627Z,15.80
2018-06-13T11:21:35.112Z,15.90
2018-06-13T11:24:03.734Z,16.00
2018-06-13T11:26:32.256Z,16.20
2018-06-13T11:29:00.762Z,16.30
2018-06-13T11:31:29.124Z,16.30
2018-06-13T11:33:57.451Z,16.20
2018-06-13T11:36:25.999Z,16.00
2018-06-13T11:38:54.430Z,16.10
2018-06-13T11:41:22.879Z,16.00
2018-06-13T11:43:51.511Z,15.80
2018-06-13T11:46:20.219Z,15.80
2018-06-13T11:48:49.146Z,15.80
2018-06-13T11:51:17.895Z,15.90
2018-06-13T11:53:46.629Z,15.90
2018-06-13T11:56:15.815Z,15.80
2018-06-13T11:58:44.818Z,15.90
2018-06-13T12:01:13.798Z,16.10
2018-06-13T12:06:11.673Z,16.30
2018-06-13T12:08:40.984Z,16.40
2018-06-13T12:11:10.336Z,16.40
2018-06-13T12:13:39.632Z,16.40
2018-06-13T12:16:09.055Z,16.40
2018-06-13T12:18:38.094Z,16.50
2018-06-13T12:21:06.596Z,16.60
2018-06-13T12:23:35.270Z,16.50
2018-06-13T12:26:03.974Z,16.60
2018-06-13T12:28:32.577Z,16.50
2018-06-13T12:31:01.287Z,16.60
2018-06-13T12:33:29.817Z,16.80
2018-06-13T12:35:58.413Z,16.60
2018-06-13T12:38:26.917Z,16.50
2018-06-13T12:40:55.694Z,16.80
2018-06-13T12:43:24.098Z,17.10
2018-06-13T12:45:52.740Z,17.40
2018-06-13T12:48:21.448Z,17.60
2018-06-13T12:50:50.889Z,17.70
2018-06-13T12:53:19.742Z,17.90
2018-06-13T12:55:48.560Z,17.60
2018-06-13T12:58:17.524Z,17.70
2018-06-13T13:00:46.228Z,17.50
2018-06-13T13:03:15.247Z,17.40
2018-06-13T13:05:44.186Z,17.20
2018-06-13T13:08:14.205Z,17.50
2018-06-13T13:10:43.378Z,17.50
2018-06-13T13:13:12.709Z,17.50
2018-06-13T13:15:44.676Z,17.60
2018-06-13T13:18:13.849Z,17.50
2018-06-13T13:20:43.522Z,17.20
2018-06-13T13:23:12.880Z,17.20
2018-06-13T13:25:41.919Z,16.90
2018-06-13T13:28:10.949Z,16.90
2018-06-13T13:30:39.795Z,17.10
2018-06-13T13:33:08.622Z,17.30
2018-06-13T13:35:38.196Z,17.40
2018-06-13T13:38:06.610Z,17.30
2018-06-13T13:40:35.263Z,17.20
2018-06-13T13:43:03.953Z,17.10
2018-06-13T13:45:32.553Z,17.10
2018-06-13T13:48:00.940Z,16.80
2018-06-13T13:50:29.367Z,16.90
2018-06-13T13:52:58.006Z,16.80
2018-06-13T13:55:28.523Z,16.70
2018-06-13T13:57:56.960Z,16.60
2018-06-13T14:00:25.415Z,16.40
2018-06-13T14:02:54.720Z,16.20
2018-06-13T14:05:23.072Z,16.00
2018-06-13T14:07:51.514Z,16.10
2018-06-13T14:10:20.331Z,16.10
2018-06-13T14:12:49.488Z,16.10
2018-06-13T14:15:18.055Z,16.20
2018-06-13T14:17:46.495Z,16.30
2018-06-13T14:20:15.194Z,16.30
2018-06-13T14:22:43.718Z,16.30
2018-06-13T14:25:12.488Z,16.40
2018-06-13T14:27:41.211Z,16.40
2018-06-13T14:30:09.801Z,16.30
2018-06-13T14:32:38.641Z,16.30
2018-06-13T14:35:07.669Z,16.30
2018-06-13T14:37:36.218Z,16.30
2018-06-13T14:40:05.841Z,16.30
2018-06-13T14:42:34.407Z,16.40
2018-06-13T14:45:03.128Z,16.40
2018-06-13T14:47:31.579Z,16.40
2018-06-13T14:50:00.324Z,16.10
2018-06-13T14:52:28.822Z,16.10
2018-06-13T14:54:57.356Z,16.00
2018-06-13T14:57:25.733Z,15.90
2018-06-13T14:59:54.275Z,15.90
2018-06-13T15:02:22.708Z,15.80
2018-06-13T15:04:51.210Z,15.80
2018-06-13T15:07:19.856Z,15.80
2018-06-13T15:09:48.504Z,15.70
2018-06-13T15:12:16.984Z,15.70
2018-06-13T15:14:45.554Z,15.60
2018-06-13T15:17:14.276Z,15.50
2018-06-13T15:19:42.830Z,15.40
2018-06-13T15:22:11.636Z,15.50
2018-06-13T15:24:40.532Z,15.30
2018-06-13T15:27:09.887Z,15.30
2018-06-13T15:29:40.047Z,15.20
2018-06-13T15:32:09.141Z,15.10
2018-06-13T15:34:39.400Z,15.10
2018-06-13T15:37:07.962Z,15.10
2018-06-13T15:39:36.561Z,15.10
2018-06-13T15:42:06.443Z,15.10
2018-06-13T15:44:35.711Z,15.20
2018-06-13T15:47:04.303Z,15.20
2018-06-13T15:49:32.731Z,15.10
2018-06-13T15:52:01.450Z,15.10
2018-06-13T15:54:29.968Z,15.00
2018-06-13T15:56:58.680Z,15.00
2018-06-13T15:59:27.292Z,14.90
2018-06-13T16:01:56.036Z,14.90
2018-06-13T16:04:24.432Z,14.80
2018-06-13T16:06:52.908Z,14.90
2018-06-13T16:09:21.384Z,14.80
2018-06-13T16:11:49.980Z,14.80
2018-06-13T16:14:18.432Z,14.70
2018-06-13T16:16:46.908Z,14.70
2018-06-13T16:19:15.394Z,14.70
2018-06-13T16:21:43.850Z,14.60
2018-06-13T16:24:12.412Z,14.70
2018-06-13T16:26:40.831Z,14.60
2018-06-13T16:29:09.749Z,14.60
2018-06-13T16:31:38.231Z,14.60
2018-06-13T16:34:06.742Z,14.50
2018-06-13T16:36:35.144Z,14.50
2018-06-13T16:39:05.885Z,14.50
2018-06-13T16:41:45.334Z,14.50
2018-06-13T16:44:13.852Z,14.60
2018-06-13T16:46:42.959Z,14.50
2018-06-13T16:49:11.448Z,14.50
2018-06-13T16:51:55.012Z,14.50
2018-06-13T16:55:27.856Z,14.50
2018-06-13T16:57:56.327Z,14.50
2018-06-13T17:00:24.872Z,14.50
2018-06-13T17:02:53.375Z,14.50
2018-06-13T17:05:21.882Z,14.50
2018-06-13T17:07:50.412Z,14.40
2018-06-13T17:10:43.548Z,14.50
2018-06-13T17:13:12.286Z,14.40
2018-06-13T17:15:41.075Z,14.40
2018-06-13T17:18:10.635Z,14.40
2018-06-13T17:20:39.276Z,14.40
2018-06-13T17:23:08.195Z,14.40
2018-06-13T17:25:36.778Z,14.30
2018-06-13T17:28:06.013Z,14.30
2018-06-13T17:30:40.338Z,14.40
2018-06-13T17:33:09.266Z,14.40
2018-06-13T17:35:37.782Z,14.30
2018-06-13T17:38:06.276Z,14.30
2018-06-13T17:40:34.786Z,14.30
2018-06-13T17:43:03.317Z,14.30
2018-06-13T17:45:31.793Z,14.30
2018-06-13T17:48:00.494Z,14.30
2018-06-13T17:50:28.982Z,14.20
2018-06-13T17:53:12.594Z,14.20
2018-06-13T17:55:41.275Z,14.20
2018-06-13T17:58:09.936Z,14.20
2018-06-13T18:03:11.442Z,14.10
2018-06-13T18:05:41.042Z,14.10
2018-06-13T18:08:09.783Z,14.10
2018-06-13T18:10:38.686Z,14.10
2018-06-13T18:13:07.204Z,14.10
2018-06-13T18:15:35.869Z,14.10
2018-06-13T18:18:04.426Z,14.10
2018-06-13T18:23:01.959Z,14.00
2018-06-13T18:25:30.632Z,14.00
2018-06-13T18:28:05.508Z,14.00
2018-06-13T18:30:34.791Z,14.00
2018-06-13T18:33:03.543Z,13.90
2018-06-13T18:35:33.045Z,13.90
2018-06-13T18:38:01.590Z,13.90
2018-06-13T18:40:30.024Z,13.90
2018-06-13T18:42:58.544Z,13.80
2018-06-13T18:45:26.992Z,13.80
2018-06-13T18:47:56.303Z,13.80
2018-06-13T18:50:24.952Z,13.80
2018-06-13T18:52:58.846Z,13.70
2018-06-13T18:55:27.330Z,13.60
2018-06-13T18:57:55.849Z,13.70
2018-06-13T19:00:24.327Z,13.70
2018-06-13T19:02:52.786Z,13.70
2018-06-13T19:05:22.002Z,13.70
2018-06-13T19:07:50.524Z,13.70
2018-06-13T19:10:19.242Z,13.70
2018-06-13T19:12:49.477Z,13.70
2018-06-13T19:15:18.716Z,13.70
2018-06-13T19:17:47.401Z,13.70
2018-06-13T19:20:15.887Z,13.70
2018-06-13T19:22:48.342Z,13.70
2018-06-13T19:25:17.019Z,13.60
2018-06-13T19:27:45.671Z,13.60
2018-06-13T19:30:14.210Z,13.60
2018-06-13T19:32:42.847Z,13.60
2018-06-13T19:35:12.373Z,13.60
2018-06-13T19:37:40.867Z,13.60
2018-06-13T19:40:09.392Z,13.50
2018-06-13T19:42:41.746Z,13.60
2018-06-13T19:45:10.380Z,13.60
2018-06-13T19:47:44.948Z,13.50
2018-06-13T19:50:13.671Z,13.50
2018-06-13T19:52:47.670Z,13.50
2018-06-13T19:55:21.355Z,13.60
2018-06-13T19:57:49.832Z,13.50
2018-06-13T20:00:20.696Z,13.60
2018-06-13T20:02:54.506Z,13.60
2018-06-13T20:05:28.535Z,13.60
2018-06-13T20:07:57.048Z,13.50
2018-06-13T20:10:25.734Z,13.50
2018-06-13T20:15:33.253Z,13.50
2018-06-13T20:18:07.388Z,13.50
2018-06-13T20:20:35.987Z,13.50
2018-06-13T20:23:04.420Z,13.50
2018-06-13T20:25:38.613Z,13.50
2018-06-13T20:28:12.364Z,13.50
2018-06-13T20:30:50.167Z,13.50
2018-06-13T20:33:18.679Z,13.50
2018-06-13T20:35:47.227Z,13.40
2018-06-13T20:38:15.810Z,13.40
2018-06-13T20:40:44.364Z,13.40
2018-06-13T20:43:12.922Z,13.40
2018-06-13T20:45:41.543Z,13.40
2018-06-13T20:48:10.179Z,13.40
2018-06-13T20:50:39.277Z,13.40
2018-06-13T20:53:07.844Z,13.40
2018-06-13T20:55:36.327Z,13.40
2018-06-13T20:58:04.878Z,13.40
2018-06-13T21:00:43.201Z,13.40
2018-06-13T21:03:12.305Z,13.40
2018-06-13T21:05:41.005Z,13.40
2018-06-13T21:08:09.855Z,13.40
2018-06-13T21:10:39.310Z,13.30
2018-06-13T21:13:07.747Z,13.40
2018-06-13T21:15:36.277Z,13.30
2018-06-13T21:18:04.807Z,13.20
2018-06-13T21:20:33.471Z,13.20
2018-06-13T21:23:02.109Z,13.20
2018-06-13T21:25:30.638Z,13.20
2018-06-13T21:27:59.138Z,13.20
2018-06-13T21:30:27.700Z,13.30
2018-06-13T21:33:08.846Z,13.30
2018-06-13T21:35:37.404Z,13.30
2018-06-13T21:38:05.903Z,13.20
2018-06-13T21:40:34.320Z,13.20
2018-06-13T21:43:02.729Z,13.20
2018-06-13T21:45:31.126Z,13.20
2018-06-13T21:47:59.605Z,13.20
2018-06-13T21:50:28.086Z,13.20
2018-06-13T21:52:56.515Z,13.10
2018-06-13T21:55:24.878Z,13.10
2018-06-13T21:57:53.326Z,13.20
2018-06-13T22:00:21.752Z,13.20
2018-06-13T22:02:50.175Z,13.20
2018-06-13T22:05:18.679Z,13.20
2018-06-13T22:07:47.082Z,13.20
2018-06-13T22:10:15.586Z,13.20
2018-06-13T22:12:44.079Z,13.10
2018-06-13T22:15:21.914Z,13.20
2018-06-13T22:17:50.371Z,13.20
2018-06-13T22:20:18.824Z,13.20
2018-06-13T22:22:47.448Z,13.10
2018-06-13T22:25:15.980Z,13.10
2018-06-13T22:27:44.436Z,13.10
2018-06-13T22:30:13.116Z,13.10
2018-06-13T22:32:41.646Z,13.10
2018-06-13T22:35:10.313Z,13.10
2018-06-13T22:37:38.874Z,13.10
2018-06-13T22:40:07.331Z,13.10
2018-06-13T22:42:35.783Z,13.10
2018-06-13T22:45:04.150Z,13.10
2018-06-13T22:47:32.602Z,13.10
2018-06-13T22:50:01.054Z,13.10
2018-06-13T22:52:29.461Z,13.10
2018-06-13T22:54:57.919Z,13.10
2018-06-13T22:57:26.452Z,13.10
2018-06-13T22:59:55.012Z,13.00
2018-06-13T23:02:23.454Z,13.00
2018-06-13T23:04:51.890Z,13.00
2018-06-13T23:07:20.328Z,13.00
2018-06-13T23:09:48.734Z,13.00
2018-06-13T23:12:17.093Z,13.00
2018-06-13T23:14:45.482Z,12.90
2018-06-13T23:17:13.951Z,12.90
2018-06-13T23:19:42.605Z,12.80
2018-06-13T23:22:11.208Z,12.80
2018-06-13T23:24:39.697Z,12.80
2018-06-13T23:27:08.663Z,12.80
2018-06-13T23:29:37.134Z,12.80
2018-06-13T23:32:05.518Z,12.80
2018-06-13T23:34:34.039Z,12.80
2018-06-13T23:37:02.443Z,12.80
2018-06-13T23:39:30.846Z,12.80
2018-06-13T23:41:59.329Z,12.80
2018-06-13T23:44:27.813Z,12.80
2018-06-13T23:46:56.298Z,12.80
2018-06-13T23:49:24.700Z,12.80
2018-06-13T23:51:53.173Z,12.90
2018-06-13T23:54:21.594Z,12.80
2018-06-13T23:56:50.078Z,12.80
2018-06-13T23:59:18.524Z,12.90
